sensor_id;sensor_type;location;lat;lon;timestamp;P1;durP1;ratioP1;P2;durP2;ratioP2
5776;SDS011;2914;42.668;23.346;2023-01-20T00:02:08;2.20;;;2.00;;
5776;SDS011;2914;42.668;23.346;2023-01-20T00:04:37;2.70;;;2.20;;
5776;SDS011;2914;42.668;23.346;2023-01-20T00:07:06;6.67;;;2.60;;
5776;SDS011;2914;42.668;23.346;2023-01-20T00:09:44;4.73;;;2.60;;
5776;SDS011;2914;42.668;23.346;2023-01-20T00:12:13;4.47;;;1.90;;
5776;SDS011;2914;42.668;23.346;2023-01-20T00:14:42;3.70;;;2.63;;
5776;SDS011;2914;42.668;23.346;2023-01-20T00:17:11;3.40;;;2.10;;
5776;SDS011;2914;42.668;23.346;2023-01-20T00:19:40;3.47;;;2.50;;
5776;SDS011;2914;42.668;23.346;2023-01-20T00:22:10;3.67;;;2.20;;
5776;SDS011;2914;42.668;23.346;2023-01-20T00:24:39;6.40;;;3.20;;
5776;SDS011;2914;42.668;23.346;2023-01-20T00:27:16;7.07;;;2.10;;
5776;SDS011;2914;42.668;23.346;2023-01-20T00:29:45;5.93;;;2.23;;
5776;SDS011;2914;42.668;23.346;2023-01-20T00:32:14;4.30;;;1.93;;
5776;SDS011;2914;42.668;23.346;2023-01-20T00:34:44;6.63;;;2.43;;
5776;SDS011;2914;42.668;23.346;2023-01-20T00:37:13;5.90;;;2.30;;
5776;SDS011;2914;42.668;23.346;2023-01-20T00:39:42;8.33;;;2.57;;
5776;SDS011;2914;42.668;23.346;2023-01-20T00:42:11;12.70;;;2.87;;
5776;SDS011;2914;42.668;23.346;2023-01-20T00:44:40;15.20;;;2.90;;
5776;SDS011;2914;42.668;23.346;2023-01-20T00:47:09;4.80;;;1.43;;
5776;SDS011;2914;42.668;23.346;2023-01-20T00:49:38;16.00;;;3.07;;
5776;SDS011;2914;42.668;23.346;2023-01-20T00:52:07;9.83;;;2.50;;
5776;SDS011;2914;42.668;23.346;2023-01-20T00:54:36;16.83;;;3.20;;
5776;SDS011;2914;42.668;23.346;2023-01-20T01:00:01;6.70;;;2.80;;
5776;SDS011;2914;42.668;23.346;2023-01-20T01:05:28;3.70;;;2.40;;
5776;SDS011;2914;42.668;23.346;2023-01-20T01:07:58;2.00;;;1.90;;
5776;SDS011;2914;42.668;23.346;2023-01-20T01:10:27;4.20;;;2.87;;
5776;SDS011;2914;42.668;23.346;2023-01-20T01:12:56;3.00;;;1.60;;
5776;SDS011;2914;42.668;23.346;2023-01-20T01:15:26;3.60;;;1.80;;
5776;SDS011;2914;42.668;23.346;2023-01-20T01:17:55;3.00;;;2.13;;
5776;SDS011;2914;42.668;23.346;2023-01-20T01:20:25;4.43;;;2.07;;
5776;SDS011;2914;42.668;23.346;2023-01-20T01:22:54;2.20;;;1.50;;
5776;SDS011;2914;42.668;23.346;2023-01-20T01:25:22;2.03;;;1.83;;
5776;SDS011;2914;42.668;23.346;2023-01-20T01:27:49;3.77;;;2.23;;
5776;SDS011;2914;42.668;23.346;2023-01-20T01:30:17;5.17;;;1.70;;
5776;SDS011;2914;42.668;23.346;2023-01-20T01:32:45;10.20;;;1.87;;
5776;SDS011;2914;42.668;23.346;2023-01-20T01:35:13;1.67;;;1.30;;
5776;SDS011;2914;42.668;23.346;2023-01-20T01:37:40;6.33;;;2.43;;
5776;SDS011;2914;42.668;23.346;2023-01-20T01:40:09;3.67;;;1.83;;
5776;SDS011;2914;42.668;23.346;2023-01-20T01:42:37;6.40;;;2.07;;
5776;SDS011;2914;42.668;23.346;2023-01-20T01:45:17;8.57;;;2.43;;
5776;SDS011;2914;42.668;23.346;2023-01-20T01:47:48;2.57;;;1.50;;
5776;SDS011;2914;42.668;23.346;2023-01-20T01:50:16;3.80;;;1.73;;
5776;SDS011;2914;42.668;23.346;2023-01-20T01:52:45;6.10;;;2.63;;
5776;SDS011;2914;42.668;23.346;2023-01-20T01:55:14;5.53;;;2.77;;
5776;SDS011;2914;42.668;23.346;2023-01-20T01:57:42;9.33;;;3.53;;
5776;SDS011;2914;42.668;23.346;2023-01-20T02:00:11;6.03;;;2.97;;
5776;SDS011;2914;42.668;23.346;2023-01-20T02:02:38;10.07;;;4.20;;
5776;SDS011;2914;42.668;23.346;2023-01-20T02:05:09;9.93;;;4.00;;
5776;SDS011;2914;42.668;23.346;2023-01-20T02:07:37;9.13;;;3.33;;
5776;SDS011;2914;42.668;23.346;2023-01-20T02:10:06;4.33;;;2.20;;
5776;SDS011;2914;42.668;23.346;2023-01-20T02:12:34;2.53;;;2.30;;
5776;SDS011;2914;42.668;23.346;2023-01-20T02:15:02;3.30;;;2.13;;
5776;SDS011;2914;42.668;23.346;2023-01-20T02:17:30;4.40;;;2.40;;
5776;SDS011;2914;42.668;23.346;2023-01-20T02:22:55;3.90;;;1.73;;
5776;SDS011;2914;42.668;23.346;2023-01-20T02:33:45;6.80;;;3.17;;
5776;SDS011;2914;42.668;23.346;2023-01-20T02:36:14;6.33;;;2.37;;
5776;SDS011;2914;42.668;23.346;2023-01-20T02:38:43;7.47;;;2.90;;
5776;SDS011;2914;42.668;23.346;2023-01-20T02:41:13;9.73;;;2.63;;
5776;SDS011;2914;42.668;23.346;2023-01-20T02:43:43;22.93;;;3.17;;
5776;SDS011;2914;42.668;23.346;2023-01-20T02:46:13;6.23;;;2.23;;
5776;SDS011;2914;42.668;23.346;2023-01-20T02:48:41;10.07;;;2.77;;
5776;SDS011;2914;42.668;23.346;2023-01-20T02:51:11;4.33;;;1.63;;
5776;SDS011;2914;42.668;23.346;2023-01-20T02:53:39;6.87;;;2.37;;
5776;SDS011;2914;42.668;23.346;2023-01-20T02:56:08;4.97;;;2.70;;
5776;SDS011;2914;42.668;23.346;2023-01-20T02:58:38;8.33;;;3.17;;
5776;SDS011;2914;42.668;23.346;2023-01-20T03:01:07;4.33;;;2.37;;
5776;SDS011;2914;42.668;23.346;2023-01-20T03:03:37;4.50;;;2.40;;
5776;SDS011;2914;42.668;23.346;2023-01-20T03:06:07;3.83;;;2.23;;
5776;SDS011;2914;42.668;23.346;2023-01-20T03:08:35;10.10;;;2.57;;
5776;SDS011;2914;42.668;23.346;2023-01-20T03:11:04;5.23;;;2.47;;
5776;SDS011;2914;42.668;23.346;2023-01-20T03:13:33;5.23;;;3.00;;
5776;SDS011;2914;42.668;23.346;2023-01-20T03:16:03;4.70;;;2.60;;
5776;SDS011;2914;42.668;23.346;2023-01-20T03:18:31;2.50;;;1.80;;
5776;SDS011;2914;42.668;23.346;2023-01-20T03:21:00;2.63;;;2.03;;
5776;SDS011;2914;42.668;23.346;2023-01-20T03:23:29;3.83;;;2.50;;
5776;SDS011;2914;42.668;23.346;2023-01-20T03:25:57;2.70;;;2.37;;
5776;SDS011;2914;42.668;23.346;2023-01-20T03:28:25;3.20;;;2.47;;
5776;SDS011;2914;42.668;23.346;2023-01-20T03:30:52;5.67;;;3.20;;
5776;SDS011;2914;42.668;23.346;2023-01-20T03:33:21;1.97;;;1.77;;
5776;SDS011;2914;42.668;23.346;2023-01-20T03:35:49;7.13;;;2.57;;
5776;SDS011;2914;42.668;23.346;2023-01-20T03:38:17;3.93;;;2.30;;
5776;SDS011;2914;42.668;23.346;2023-01-20T03:40:45;4.70;;;2.33;;
5776;SDS011;2914;42.668;23.346;2023-01-20T03:43:15;3.23;;;1.67;;
5776;SDS011;2914;42.668;23.346;2023-01-20T03:45:49;11.23;;;2.73;;
5776;SDS011;2914;42.668;23.346;2023-01-20T03:48:15;3.73;;;1.73;;
5776;SDS011;2914;42.668;23.346;2023-01-20T03:50:45;6.30;;;2.60;;
5776;SDS011;2914;42.668;23.346;2023-01-20T03:53:17;2.50;;;1.50;;
5776;SDS011;2914;42.668;23.346;2023-01-20T03:55:45;6.10;;;2.97;;
5776;SDS011;2914;42.668;23.346;2023-01-20T03:58:14;2.63;;;2.03;;
5776;SDS011;2914;42.668;23.346;2023-01-20T04:00:43;5.53;;;2.37;;
5776;SDS011;2914;42.668;23.346;2023-01-20T04:03:13;4.80;;;1.70;;
5776;SDS011;2914;42.668;23.346;2023-01-20T04:05:40;4.70;;;2.80;;
5776;SDS011;2914;42.668;23.346;2023-01-20T04:08:09;1.67;;;1.37;;
5776;SDS011;2914;42.668;23.346;2023-01-20T04:10:39;10.97;;;3.00;;
5776;SDS011;2914;42.668;23.346;2023-01-20T04:13:07;4.90;;;2.03;;
5776;SDS011;2914;42.668;23.346;2023-01-20T04:15:35;14.07;;;6.60;;
5776;SDS011;2914;42.668;23.346;2023-01-20T04:18:11;3.80;;;3.23;;
5776;SDS011;2914;42.668;23.346;2023-01-20T04:20:39;5.80;;;3.60;;
5776;SDS011;2914;42.668;23.346;2023-01-20T04:23:06;7.73;;;3.30;;
5776;SDS011;2914;42.668;23.346;2023-01-20T04:25:35;7.40;;;4.13;;
5776;SDS011;2914;42.668;23.346;2023-01-20T04:28:02;5.80;;;3.60;;
5776;SDS011;2914;42.668;23.346;2023-01-20T04:30:30;3.70;;;3.07;;
5776;SDS011;2914;42.668;23.346;2023-01-20T04:32:57;6.80;;;3.30;;
5776;SDS011;2914;42.668;23.346;2023-01-20T04:35:25;3.97;;;2.67;;
5776;SDS011;2914;42.668;23.346;2023-01-20T04:37:53;7.83;;;3.20;;
5776;SDS011;2914;42.668;23.346;2023-01-20T04:40:20;7.57;;;3.33;;
5776;SDS011;2914;42.668;23.346;2023-01-20T04:42:48;8.93;;;2.70;;
5776;SDS011;2914;42.668;23.346;2023-01-20T04:45:15;6.43;;;3.00;;
5776;SDS011;2914;42.668;23.346;2023-01-20T04:47:43;11.23;;;4.60;;
5776;SDS011;2914;42.668;23.346;2023-01-20T04:50:11;6.13;;;2.53;;
5776;SDS011;2914;42.668;23.346;2023-01-20T04:52:39;9.67;;;4.23;;
5776;SDS011;2914;42.668;23.346;2023-01-20T04:55:07;6.07;;;3.43;;
5776;SDS011;2914;42.668;23.346;2023-01-20T04:57:35;11.10;;;4.10;;
5776;SDS011;2914;42.668;23.346;2023-01-20T05:00:03;6.43;;;3.10;;
5776;SDS011;2914;42.668;23.346;2023-01-20T05:02:32;10.83;;;5.17;;
5776;SDS011;2914;42.668;23.346;2023-01-20T05:04:59;6.27;;;3.43;;
5776;SDS011;2914;42.668;23.346;2023-01-20T05:07:27;4.30;;;3.60;;
5776;SDS011;2914;42.668;23.346;2023-01-20T05:09:54;10.90;;;4.33;;
5776;SDS011;2914;42.668;23.346;2023-01-20T05:12:22;14.37;;;4.10;;
5776;SDS011;2914;42.668;23.346;2023-01-20T05:14:49;3.70;;;2.80;;
5776;SDS011;2914;42.668;23.346;2023-01-20T05:17:17;8.53;;;5.10;;
5776;SDS011;2914;42.668;23.346;2023-01-20T05:19:44;6.40;;;2.93;;
5776;SDS011;2914;42.668;23.346;2023-01-20T05:22:12;6.70;;;3.00;;
5776;SDS011;2914;42.668;23.346;2023-01-20T05:24:39;7.97;;;3.20;;
5776;SDS011;2914;42.668;23.346;2023-01-20T05:27:07;6.77;;;3.80;;
5776;SDS011;2914;42.668;23.346;2023-01-20T05:29:34;24.87;;;7.50;;
5776;SDS011;2914;42.668;23.346;2023-01-20T05:32:02;7.50;;;3.73;;
5776;SDS011;2914;42.668;23.346;2023-01-20T05:34:30;6.27;;;3.97;;
5776;SDS011;2914;42.668;23.346;2023-01-20T05:36:57;8.87;;;3.60;;
5776;SDS011;2914;42.668;23.346;2023-01-20T05:39:25;3.80;;;3.17;;
5776;SDS011;2914;42.668;23.346;2023-01-20T05:41:52;4.30;;;3.43;;
5776;SDS011;2914;42.668;23.346;2023-01-20T05:44:20;8.43;;;3.77;;
5776;SDS011;2914;42.668;23.346;2023-01-20T05:46:47;8.50;;;4.00;;
5776;SDS011;2914;42.668;23.346;2023-01-20T05:49:14;3.70;;;3.30;;
5776;SDS011;2914;42.668;23.346;2023-01-20T05:51:42;15.30;;;6.93;;
5776;SDS011;2914;42.668;23.346;2023-01-20T05:54:10;6.93;;;3.97;;
5776;SDS011;2914;42.668;23.346;2023-01-20T05:56:37;8.37;;;4.70;;
5776;SDS011;2914;42.668;23.346;2023-01-20T05:59:04;7.47;;;4.47;;
5776;SDS011;2914;42.668;23.346;2023-01-20T06:01:33;5.73;;;3.90;;
5776;SDS011;2914;42.668;23.346;2023-01-20T06:04:00;4.10;;;3.37;;
5776;SDS011;2914;42.668;23.346;2023-01-20T06:06:28;10.70;;;4.90;;
5776;SDS011;2914;42.668;23.346;2023-01-20T06:08:55;10.57;;;4.03;;
5776;SDS011;2914;42.668;23.346;2023-01-20T06:11:23;9.40;;;4.23;;
5776;SDS011;2914;42.668;23.346;2023-01-20T06:13:50;9.43;;;3.70;;
5776;SDS011;2914;42.668;23.346;2023-01-20T06:16:18;6.80;;;3.60;;
5776;SDS011;2914;42.668;23.346;2023-01-20T06:18:46;8.53;;;4.70;;
5776;SDS011;2914;42.668;23.346;2023-01-20T06:21:13;9.10;;;3.40;;
5776;SDS011;2914;42.668;23.346;2023-01-20T06:23:41;11.57;;;4.47;;
5776;SDS011;2914;42.668;23.346;2023-01-20T06:26:10;8.23;;;4.80;;
5776;SDS011;2914;42.668;23.346;2023-01-20T06:28:37;10.10;;;5.00;;
5776;SDS011;2914;42.668;23.346;2023-01-20T06:31:06;4.40;;;4.00;;
5776;SDS011;2914;42.668;23.346;2023-01-20T06:33:33;7.10;;;4.80;;
5776;SDS011;2914;42.668;23.346;2023-01-20T06:36:01;14.60;;;5.50;;
5776;SDS011;2914;42.668;23.346;2023-01-20T06:38:30;5.40;;;4.33;;
5776;SDS011;2914;42.668;23.346;2023-01-20T06:40:58;5.67;;;4.27;;
5776;SDS011;2914;42.668;23.346;2023-01-20T06:43:27;9.17;;;6.40;;
5776;SDS011;2914;42.668;23.346;2023-01-20T06:45:58;6.83;;;5.50;;
5776;SDS011;2914;42.668;23.346;2023-01-20T06:48:26;9.37;;;6.40;;
5776;SDS011;2914;42.668;23.346;2023-01-20T06:50:58;13.30;;;5.70;;
5776;SDS011;2914;42.668;23.346;2023-01-20T06:53:23;9.07;;;6.20;;
5776;SDS011;2914;42.668;23.346;2023-01-20T06:55:54;7.80;;;5.00;;
5776;SDS011;2914;42.668;23.346;2023-01-20T06:58:22;7.63;;;4.90;;
5776;SDS011;2914;42.668;23.346;2023-01-20T07:00:50;5.87;;;4.17;;
5776;SDS011;2914;42.668;23.346;2023-01-20T07:03:18;5.90;;;4.80;;
5776;SDS011;2914;42.668;23.346;2023-01-20T07:05:50;5.00;;;4.50;;
5776;SDS011;2914;42.668;23.346;2023-01-20T07:08:19;6.53;;;3.90;;
5776;SDS011;2914;42.668;23.346;2023-01-20T07:10:47;3.80;;;3.50;;
5776;SDS011;2914;42.668;23.346;2023-01-20T07:13:17;4.90;;;4.40;;
5776;SDS011;2914;42.668;23.346;2023-01-20T07:15:44;10.97;;;5.40;;
5776;SDS011;2914;42.668;23.346;2023-01-20T07:18:12;9.90;;;5.83;;
5776;SDS011;2914;42.668;23.346;2023-01-20T07:20:40;8.70;;;5.80;;
5776;SDS011;2914;42.668;23.346;2023-01-20T07:23:08;6.90;;;5.87;;
5776;SDS011;2914;42.668;23.346;2023-01-20T07:25:36;9.70;;;6.50;;
5776;SDS011;2914;42.668;23.346;2023-01-20T07:28:04;11.90;;;7.33;;
5776;SDS011;2914;42.668;23.346;2023-01-20T07:30:32;16.40;;;6.73;;
5776;SDS011;2914;42.668;23.346;2023-01-20T07:32:59;6.60;;;5.57;;
5776;SDS011;2914;42.668;23.346;2023-01-20T07:35:27;11.90;;;6.20;;
5776;SDS011;2914;42.668;23.346;2023-01-20T07:37:55;13.03;;;7.40;;
5776;SDS011;2914;42.668;23.346;2023-01-20T07:40:22;10.53;;;6.20;;
5776;SDS011;2914;42.668;23.346;2023-01-20T07:42:50;6.80;;;5.13;;
5776;SDS011;2914;42.668;23.346;2023-01-20T07:45:21;8.93;;;5.90;;
5776;SDS011;2914;42.668;23.346;2023-01-20T07:47:50;7.40;;;5.80;;
5776;SDS011;2914;42.668;23.346;2023-01-20T07:50:19;7.27;;;5.20;;
5776;SDS011;2914;42.668;23.346;2023-01-20T07:52:46;7.33;;;5.10;;
5776;SDS011;2914;42.668;23.346;2023-01-20T07:55:14;10.03;;;5.90;;
5776;SDS011;2914;42.668;23.346;2023-01-20T07:57:42;13.67;;;7.90;;
5776;SDS011;2914;42.668;23.346;2023-01-20T08:00:10;11.80;;;7.00;;
5776;SDS011;2914;42.668;23.346;2023-01-20T08:02:38;10.60;;;6.87;;
5776;SDS011;2914;42.668;23.346;2023-01-20T08:05:07;10.13;;;5.60;;
5776;SDS011;2914;42.668;23.346;2023-01-20T08:07:34;9.10;;;7.10;;
5776;SDS011;2914;42.668;23.346;2023-01-20T08:10:02;5.37;;;4.87;;
5776;SDS011;2914;42.668;23.346;2023-01-20T08:12:30;8.40;;;5.00;;
5776;SDS011;2914;42.668;23.346;2023-01-20T08:14:57;14.73;;;4.57;;
5776;SDS011;2914;42.668;23.346;2023-01-20T08:17:25;8.90;;;5.70;;
5776;SDS011;2914;42.668;23.346;2023-01-20T08:19:52;7.40;;;5.10;;
5776;SDS011;2914;42.668;23.346;2023-01-20T08:22:20;7.03;;;4.00;;
5776;SDS011;2914;42.668;23.346;2023-01-20T08:24:47;5.90;;;4.17;;
5776;SDS011;2914;42.668;23.346;2023-01-20T08:27:15;7.60;;;4.87;;
5776;SDS011;2914;42.668;23.346;2023-01-20T08:29:43;16.13;;;5.70;;
5776;SDS011;2914;42.668;23.346;2023-01-20T08:32:10;9.67;;;5.83;;
5776;SDS011;2914;42.668;23.346;2023-01-20T08:34:38;10.20;;;5.90;;
5776;SDS011;2914;42.668;23.346;2023-01-20T08:37:05;14.53;;;5.30;;
5776;SDS011;2914;42.668;23.346;2023-01-20T08:39:33;9.67;;;5.27;;
5776;SDS011;2914;42.668;23.346;2023-01-20T08:42:00;9.10;;;6.20;;
5776;SDS011;2914;42.668;23.346;2023-01-20T08:44:28;9.07;;;5.50;;
5776;SDS011;2914;42.668;23.346;2023-01-20T08:46:55;16.17;;;7.57;;
5776;SDS011;2914;42.668;23.346;2023-01-20T08:49:24;11.10;;;6.23;;
5776;SDS011;2914;42.668;23.346;2023-01-20T08:51:52;16.23;;;6.87;;
5776;SDS011;2914;42.668;23.346;2023-01-20T08:54:20;16.03;;;6.80;;
5776;SDS011;2914;42.668;23.346;2023-01-20T08:56:49;7.80;;;6.10;;
5776;SDS011;2914;42.668;23.346;2023-01-20T08:59:17;7.83;;;6.10;;
5776;SDS011;2914;42.668;23.346;2023-01-20T09:01:44;12.00;;;6.63;;
5776;SDS011;2914;42.668;23.346;2023-01-20T09:04:12;4.87;;;3.30;;
5776;SDS011;2914;42.668;23.346;2023-01-20T09:06:41;7.90;;;3.70;;
5776;SDS011;2914;42.668;23.346;2023-01-20T09:09:09;9.33;;;3.33;;
5776;SDS011;2914;42.668;23.346;2023-01-20T09:11:37;6.07;;;3.67;;
5776;SDS011;2914;42.668;23.346;2023-01-20T09:14:04;7.43;;;3.87;;
5776;SDS011;2914;42.668;23.346;2023-01-20T09:16:32;7.30;;;3.90;;
5776;SDS011;2914;42.668;23.346;2023-01-20T09:19:00;10.03;;;2.30;;
5776;SDS011;2914;42.668;23.346;2023-01-20T09:21:30;3.73;;;2.53;;
5776;SDS011;2914;42.668;23.346;2023-01-20T09:23:58;4.27;;;2.90;;
5776;SDS011;2914;42.668;23.346;2023-01-20T09:26:26;3.03;;;2.00;;
5776;SDS011;2914;42.668;23.346;2023-01-20T09:28:55;3.47;;;2.40;;
5776;SDS011;2914;42.668;23.346;2023-01-20T09:31:23;2.37;;;2.17;;
5776;SDS011;2914;42.668;23.346;2023-01-20T09:33:51;2.90;;;2.33;;
5776;SDS011;2914;42.668;23.346;2023-01-20T09:36:18;2.27;;;2.10;;
5776;SDS011;2914;42.668;23.346;2023-01-20T09:38:46;13.27;;;4.20;;
5776;SDS011;2914;42.668;23.346;2023-01-20T09:41:46;3.67;;;2.70;;
5776;SDS011;2914;42.668;23.346;2023-01-20T09:44:41;5.73;;;3.70;;
5776;SDS011;2914;42.668;23.346;2023-01-20T09:47:13;5.17;;;2.77;;
5776;SDS011;2914;42.668;23.346;2023-01-20T09:49:51;2.73;;;2.53;;
5776;SDS011;2914;42.668;23.346;2023-01-20T09:52:36;5.90;;;3.30;;
5776;SDS011;2914;42.668;23.346;2023-01-20T09:55:23;3.90;;;2.20;;
5776;SDS011;2914;42.668;23.346;2023-01-20T09:57:52;4.60;;;2.70;;
5776;SDS011;2914;42.668;23.346;2023-01-20T10:00:23;4.17;;;3.17;;
5776;SDS011;2914;42.668;23.346;2023-01-20T10:02:54;2.10;;;1.93;;
5776;SDS011;2914;42.668;23.346;2023-01-20T10:05:22;2.70;;;2.50;;
5776;SDS011;2914;42.668;23.346;2023-01-20T10:07:51;2.37;;;2.23;;
5776;SDS011;2914;42.668;23.346;2023-01-20T10:10:21;2.40;;;1.90;;
5776;SDS011;2914;42.668;23.346;2023-01-20T10:12:50;2.53;;;1.93;;
5776;SDS011;2914;42.668;23.346;2023-01-20T10:15:21;3.57;;;2.20;;
5776;SDS011;2914;42.668;23.346;2023-01-20T10:17:49;1.97;;;1.87;;
5776;SDS011;2914;42.668;23.346;2023-01-20T10:20:20;4.27;;;2.70;;
5776;SDS011;2914;42.668;23.346;2023-01-20T10:22:50;3.80;;;2.50;;
5776;SDS011;2914;42.668;23.346;2023-01-20T10:25:19;4.27;;;2.40;;
5776;SDS011;2914;42.668;23.346;2023-01-20T10:27:49;2.60;;;2.40;;
5776;SDS011;2914;42.668;23.346;2023-01-20T10:30:18;5.23;;;3.07;;
5776;SDS011;2914;42.668;23.346;2023-01-20T10:32:47;7.00;;;3.37;;
5776;SDS011;2914;42.668;23.346;2023-01-20T10:35:16;5.50;;;3.20;;
5776;SDS011;2914;42.668;23.346;2023-01-20T10:37:44;5.30;;;3.53;;
5776;SDS011;2914;42.668;23.346;2023-01-20T10:40:16;2.10;;;2.00;;
5776;SDS011;2914;42.668;23.346;2023-01-20T10:42:46;4.03;;;2.23;;
5776;SDS011;2914;42.668;23.346;2023-01-20T10:45:16;2.70;;;2.50;;
5776;SDS011;2914;42.668;23.346;2023-01-20T10:47:45;7.03;;;3.93;;
5776;SDS011;2914;42.668;23.346;2023-01-20T10:50:27;3.93;;;2.90;;
5776;SDS011;2914;42.668;23.346;2023-01-20T10:55:46;6.70;;;3.10;;
5776;SDS011;2914;42.668;23.346;2023-01-20T10:58:15;3.20;;;3.00;;
5776;SDS011;2914;42.668;23.346;2023-01-20T11:00:43;4.60;;;3.87;;
5776;SDS011;2914;42.668;23.346;2023-01-20T11:03:12;5.10;;;3.17;;
5776;SDS011;2914;42.668;23.346;2023-01-20T11:05:41;3.83;;;3.53;;
5776;SDS011;2914;42.668;23.346;2023-01-20T11:08:13;3.33;;;3.13;;
5776;SDS011;2914;42.668;23.346;2023-01-20T11:10:38;3.13;;;2.40;;
5776;SDS011;2914;42.668;23.346;2023-01-20T11:13:08;3.80;;;2.83;;
5776;SDS011;2914;42.668;23.346;2023-01-20T11:15:37;3.43;;;3.20;;
5776;SDS011;2914;42.668;23.346;2023-01-20T11:18:24;3.70;;;2.90;;
5776;SDS011;2914;42.668;23.346;2023-01-20T11:20:55;5.17;;;2.30;;
5776;SDS011;2914;42.668;23.346;2023-01-20T11:23:23;2.90;;;2.70;;
5776;SDS011;2914;42.668;23.346;2023-01-20T11:25:54;3.10;;;2.80;;
5776;SDS011;2914;42.668;23.346;2023-01-20T11:28:22;5.10;;;2.63;;
5776;SDS011;2914;42.668;23.346;2023-01-20T11:30:51;5.27;;;3.57;;
5776;SDS011;2914;42.668;23.346;2023-01-20T11:33:21;6.13;;;4.53;;
5776;SDS011;2914;42.668;23.346;2023-01-20T11:35:59;8.57;;;5.30;;
5776;SDS011;2914;42.668;23.346;2023-01-20T11:38:28;6.93;;;5.40;;
5776;SDS011;2914;42.668;23.346;2023-01-20T11:40:56;7.70;;;4.43;;
5776;SDS011;2914;42.668;23.346;2023-01-20T11:43:27;4.87;;;4.40;;
5776;SDS011;2914;42.668;23.346;2023-01-20T11:46:08;9.90;;;5.40;;
5776;SDS011;2914;42.668;23.346;2023-01-20T11:48:36;5.13;;;4.60;;
5776;SDS011;2914;42.668;23.346;2023-01-20T11:51:13;7.63;;;5.80;;
5776;SDS011;2914;42.668;23.346;2023-01-20T11:53:33;10.37;;;5.60;;
5776;SDS011;2914;42.668;23.346;2023-01-20T11:56:02;7.77;;;5.23;;
5776;SDS011;2914;42.668;23.346;2023-01-20T11:58:31;6.27;;;4.10;;
5776;SDS011;2914;42.668;23.346;2023-01-20T12:01:01;2.60;;;2.40;;
5776;SDS011;2914;42.668;23.346;2023-01-20T12:03:34;2.63;;;2.43;;
5776;SDS011;2914;42.668;23.346;2023-01-20T12:06:03;3.10;;;2.07;;
5776;SDS011;2914;42.668;23.346;2023-01-20T12:08:33;5.80;;;3.00;;
5776;SDS011;2914;42.668;23.346;2023-01-20T12:11:03;4.13;;;2.40;;
5776;SDS011;2914;42.668;23.346;2023-01-20T12:13:34;10.33;;;4.73;;
5776;SDS011;2914;42.668;23.346;2023-01-20T12:16:05;6.40;;;2.50;;
5776;SDS011;2914;42.668;23.346;2023-01-20T12:18:33;9.20;;;2.33;;
5776;SDS011;2914;42.668;23.346;2023-01-20T12:21:03;5.33;;;2.23;;
5776;SDS011;2914;42.668;23.346;2023-01-20T12:23:38;3.67;;;2.20;;
5776;SDS011;2914;42.668;23.346;2023-01-20T12:26:04;5.27;;;3.13;;
5776;SDS011;2914;42.668;23.346;2023-01-20T12:28:35;4.37;;;3.63;;
5776;SDS011;2914;42.668;23.346;2023-01-20T12:31:02;3.07;;;2.77;;
5776;SDS011;2914;42.668;23.346;2023-01-20T12:33:31;4.27;;;3.60;;
5776;SDS011;2914;42.668;23.346;2023-01-20T12:36:04;6.67;;;3.43;;
5776;SDS011;2914;42.668;23.346;2023-01-20T12:38:33;6.93;;;3.77;;
5776;SDS011;2914;42.668;23.346;2023-01-20T12:41:02;4.13;;;2.33;;
5776;SDS011;2914;42.668;23.346;2023-01-20T12:43:37;3.00;;;2.00;;
5776;SDS011;2914;42.668;23.346;2023-01-20T12:46:09;1.93;;;1.83;;
5776;SDS011;2914;42.668;23.346;2023-01-20T12:48:40;5.30;;;3.37;;
5776;SDS011;2914;42.668;23.346;2023-01-20T12:51:13;2.60;;;2.40;;
5776;SDS011;2914;42.668;23.346;2023-01-20T12:53:43;4.40;;;3.00;;
5776;SDS011;2914;42.668;23.346;2023-01-20T12:56:14;3.40;;;2.60;;
5776;SDS011;2914;42.668;23.346;2023-01-20T12:58:44;4.63;;;3.13;;
5776;SDS011;2914;42.668;23.346;2023-01-20T13:01:19;4.00;;;2.83;;
5776;SDS011;2914;42.668;23.346;2023-01-20T13:09:35;2.37;;;1.80;;
5776;SDS011;2914;42.668;23.346;2023-01-20T13:12:08;3.13;;;1.80;;
5776;SDS011;2914;42.668;23.346;2023-01-20T13:14:36;6.60;;;3.47;;
5776;SDS011;2914;42.668;23.346;2023-01-20T13:17:09;2.47;;;2.27;;
5776;SDS011;2914;42.668;23.346;2023-01-20T13:19:36;2.33;;;1.70;;
5776;SDS011;2914;42.668;23.346;2023-01-20T13:22:09;3.10;;;2.60;;
5776;SDS011;2914;42.668;23.346;2023-01-20T13:24:36;10.70;;;3.77;;
5776;SDS011;2914;42.668;23.346;2023-01-20T13:27:05;6.90;;;2.93;;
5776;SDS011;2914;42.668;23.346;2023-01-20T13:29:42;2.90;;;2.60;;
5776;SDS011;2914;42.668;23.346;2023-01-20T13:32:31;5.60;;;3.03;;
5776;SDS011;2914;42.668;23.346;2023-01-20T13:34:59;4.30;;;3.37;;
5776;SDS011;2914;42.668;23.346;2023-01-20T13:37:30;4.47;;;2.43;;
5776;SDS011;2914;42.668;23.346;2023-01-20T13:39:58;2.80;;;2.47;;
5776;SDS011;2914;42.668;23.346;2023-01-20T13:42:26;2.30;;;2.20;;
5776;SDS011;2914;42.668;23.346;2023-01-20T13:45:14;2.37;;;2.03;;
5776;SDS011;2914;42.668;23.346;2023-01-20T13:47:51;5.83;;;3.57;;
5776;SDS011;2914;42.668;23.346;2023-01-20T13:50:22;2.23;;;2.00;;
5776;SDS011;2914;42.668;23.346;2023-01-20T13:55:57;4.77;;;3.17;;
5776;SDS011;2914;42.668;23.346;2023-01-20T13:58:26;2.70;;;2.50;;
5776;SDS011;2914;42.668;23.346;2023-01-20T14:00:54;3.17;;;2.87;;
5776;SDS011;2914;42.668;23.346;2023-01-20T14:03:23;2.33;;;2.23;;
5776;SDS011;2914;42.668;23.346;2023-01-20T14:05:53;2.80;;;2.60;;
5776;SDS011;2914;42.668;23.346;2023-01-20T14:08:21;2.90;;;2.57;;
5776;SDS011;2914;42.668;23.346;2023-01-20T14:10:49;6.47;;;2.20;;
5776;SDS011;2914;42.668;23.346;2023-01-20T14:13:20;2.80;;;2.30;;
5776;SDS011;2914;42.668;23.346;2023-01-20T14:15:49;7.90;;;3.77;;
5776;SDS011;2914;42.668;23.346;2023-01-20T14:18:18;3.40;;;2.23;;
5776;SDS011;2914;42.668;23.346;2023-01-20T14:20:56;2.90;;;2.27;;
5776;SDS011;2914;42.668;23.346;2023-01-20T14:23:28;3.23;;;2.03;;
5776;SDS011;2914;42.668;23.346;2023-01-20T14:25:56;5.00;;;3.30;;
5776;SDS011;2914;42.668;23.346;2023-01-20T14:28:24;4.80;;;3.20;;
5776;SDS011;2914;42.668;23.346;2023-01-20T14:33:52;4.57;;;2.57;;
5776;SDS011;2914;42.668;23.346;2023-01-20T14:36:20;2.73;;;2.50;;
5776;SDS011;2914;42.668;23.346;2023-01-20T14:38:49;4.00;;;2.77;;
5776;SDS011;2914;42.668;23.346;2023-01-20T14:41:25;5.10;;;3.07;;
5776;SDS011;2914;42.668;23.346;2023-01-20T14:43:53;3.53;;;2.50;;
5776;SDS011;2914;42.668;23.346;2023-01-20T14:46:21;3.73;;;2.00;;
5776;SDS011;2914;42.668;23.346;2023-01-20T14:48:49;2.60;;;2.40;;
5776;SDS011;2914;42.668;23.346;2023-01-20T14:51:17;4.77;;;2.87;;
5776;SDS011;2914;42.668;23.346;2023-01-20T14:53:45;2.60;;;2.30;;
5776;SDS011;2914;42.668;23.346;2023-01-20T14:56:17;2.63;;;2.43;;
5776;SDS011;2914;42.668;23.346;2023-01-20T14:58:46;2.70;;;2.50;;
5776;SDS011;2914;42.668;23.346;2023-01-20T15:01:20;7.33;;;3.60;;
5776;SDS011;2914;42.668;23.346;2023-01-20T15:03:54;7.70;;;4.00;;
5776;SDS011;2914;42.668;23.346;2023-01-20T15:06:22;6.97;;;3.80;;
5776;SDS011;2914;42.668;23.346;2023-01-20T15:08:51;2.90;;;2.63;;
5776;SDS011;2914;42.668;23.346;2023-01-20T15:11:22;23.27;;;4.03;;
5776;SDS011;2914;42.668;23.346;2023-01-20T15:14:07;6.00;;;3.33;;
5776;SDS011;2914;42.668;23.346;2023-01-20T15:16:40;8.87;;;4.50;;
5776;SDS011;2914;42.668;23.346;2023-01-20T15:25:01;4.20;;;3.03;;
5776;SDS011;2914;42.668;23.346;2023-01-20T15:27:27;4.97;;;3.57;;
5776;SDS011;2914;42.668;23.346;2023-01-20T15:30:00;6.47;;;4.07;;
5776;SDS011;2914;42.668;23.346;2023-01-20T15:32:27;7.90;;;3.83;;
5776;SDS011;2914;42.668;23.346;2023-01-20T15:34:55;4.37;;;3.97;;
5776;SDS011;2914;42.668;23.346;2023-01-20T15:37:23;5.70;;;3.70;;
5776;SDS011;2914;42.668;23.346;2023-01-20T15:39:50;6.60;;;3.93;;
5776;SDS011;2914;42.668;23.346;2023-01-20T15:42:20;3.43;;;3.20;;
5776;SDS011;2914;42.668;23.346;2023-01-20T15:44:50;5.87;;;4.33;;
5776;SDS011;2914;42.668;23.346;2023-01-20T15:47:19;7.03;;;4.77;;
5776;SDS011;2914;42.668;23.346;2023-01-20T15:49:47;7.43;;;3.90;;
5776;SDS011;2914;42.668;23.346;2023-01-20T15:52:14;4.43;;;3.93;;